sensor_id;sensor_type;location;lat;lon;timestamp;P1;durP1;ratioP1;P2;durP2;ratioP2
12151;SDS011;6139;51.274;7.128;2023-04-10T00:00:15;9.13;;;8.23;;
12151;SDS011;6139;51.274;7.128;2023-04-10T00:01:16;9.07;;;8.05;;
12151;SDS011;6139;51.274;7.128;2023-04-10T00:02:18;9.25;;;8.35;;
12151;SDS011;6139;51.274;7.128;2023-04-10T00:03:19;8.85;;;7.95;;
12151;SDS011;6139;51.274;7.128;2023-04-10T00:04:22;9.13;;;8.23;;
12151;SDS011;6139;51.274;7.128;2023-04-10T00:05:23;9.52;;;8.13;;
12151;SDS011;6139;51.274;7.128;2023-04-10T00:06:25;8.75;;;7.78;;
12151;SDS011;6139;51.274;7.128;2023-04-10T00:07:27;9.30;;;8.30;;
12151;SDS011;6139;51.274;7.128;2023-04-10T00:08:29;9.68;;;8.50;;
12151;SDS011;6139;51.274;7.128;2023-04-10T00:09:30;9.23;;;7.72;;
12151;SDS011;6139;51.274;7.128;2023-04-10T00:10:32;9.05;;;8.15;;
12151;SDS011;6139;51.274;7.128;2023-04-10T00:11:33;9.35;;;8.35;;
12151;SDS011;6139;51.274;7.128;2023-04-10T00:12:35;8.93;;;8.07;;
12151;SDS011;6139;51.274;7.128;2023-04-10T00:13:36;9.88;;;8.10;;
12151;SDS011;6139;51.274;7.128;2023-04-10T00:14:38;9.82;;;8.23;;
12151;SDS011;6139;51.274;7.128;2023-04-10T00:15:41;9.52;;;8.25;;
12151;SDS011;6139;51.274;7.128;2023-04-10T00:16:43;10.00;;;8.60;;
12151;SDS011;6139;51.274;7.128;2023-04-10T00:17:44;10.55;;;8.63;;
12151;SDS011;6139;51.274;7.128;2023-04-10T00:18:46;9.15;;;8.15;;
12151;SDS011;6139;51.274;7.128;2023-04-10T00:19:47;10.35;;;8.65;;
12151;SDS011;6139;51.274;7.128;2023-04-10T00:20:49;9.35;;;8.35;;
12151;SDS011;6139;51.274;7.128;2023-04-10T00:21:50;9.38;;;8.38;;
12151;SDS011;6139;51.274;7.128;2023-04-10T00:22:51;10.43;;;8.13;;
12151;SDS011;6139;51.274;7.128;2023-04-10T00:23:52;9.60;;;8.60;;
12151;SDS011;6139;51.274;7.128;2023-04-10T00:24:54;10.82;;;8.75;;
12151;SDS011;6139;51.274;7.128;2023-04-10T00:25:55;9.88;;;8.20;;
12151;SDS011;6139;51.274;7.128;2023-04-10T00:26:57;9.43;;;8.40;;
12151;SDS011;6139;51.274;7.128;2023-04-10T00:27:58;10.02;;;9.00;;
12151;SDS011;6139;51.274;7.128;2023-04-10T00:29:00;10.15;;;9.15;;
12151;SDS011;6139;51.274;7.128;2023-04-10T00:30:01;9.30;;;8.20;;
12151;SDS011;6139;51.274;7.128;2023-04-10T00:31:05;10.30;;;8.85;;
12151;SDS011;6139;51.274;7.128;2023-04-10T00:32:06;8.95;;;8.00;;
12151;SDS011;6139;51.274;7.128;2023-04-10T00:33:08;9.95;;;8.52;;
12151;SDS011;6139;51.274;7.128;2023-04-10T00:34:09;10.50;;;8.60;;
12151;SDS011;6139;51.274;7.128;2023-04-10T00:35:13;9.82;;;8.82;;
12151;SDS011;6139;51.274;7.128;2023-04-10T00:36:14;10.32;;;8.75;;
12151;SDS011;6139;51.274;7.128;2023-04-10T00:37:16;9.57;;;8.60;;
12151;SDS011;6139;51.274;7.128;2023-04-10T00:38:18;8.90;;;8.00;;
12151;SDS011;6139;51.274;7.128;2023-04-10T00:39:21;9.65;;;8.35;;
12151;SDS011;6139;51.274;7.128;2023-04-10T00:40:22;9.75;;;8.70;;
12151;SDS011;6139;51.274;7.128;2023-04-10T00:41:24;10.40;;;8.30;;
12151;SDS011;6139;51.274;7.128;2023-04-10T00:42:25;9.40;;;8.32;;
12151;SDS011;6139;51.274;7.128;2023-04-10T00:43:27;9.18;;;8.13;;
12151;SDS011;6139;51.274;7.128;2023-04-10T00:44:28;9.10;;;8.13;;
12151;SDS011;6139;51.274;7.128;2023-04-10T00:45:30;9.00;;;7.85;;
12151;SDS011;6139;51.274;7.128;2023-04-10T00:46:33;9.68;;;8.68;;
12151;SDS011;6139;51.274;7.128;2023-04-10T00:47:36;9.45;;;8.45;;
12151;SDS011;6139;51.274;7.128;2023-04-10T00:48:37;9.02;;;8.13;;
12151;SDS011;6139;51.274;7.128;2023-04-10T00:49:40;10.02;;;8.73;;
12151;SDS011;6139;51.274;7.128;2023-04-10T00:50:41;9.48;;;8.18;;
12151;SDS011;6139;51.274;7.128;2023-04-10T00:51:44;10.02;;;8.60;;
12151;SDS011;6139;51.274;7.128;2023-04-10T00:52:46;8.93;;;8.03;;
12151;SDS011;6139;51.274;7.128;2023-04-10T00:53:49;10.25;;;9.10;;
12151;SDS011;6139;51.274;7.128;2023-04-10T00:54:51;9.23;;;7.80;;
12151;SDS011;6139;51.274;7.128;2023-04-10T00:55:52;10.05;;;8.77;;
12151;SDS011;6139;51.274;7.128;2023-04-10T00:56:55;9.40;;;8.45;;
12151;SDS011;6139;51.274;7.128;2023-04-10T00:57:57;9.38;;;8.38;;
12151;SDS011;6139;51.274;7.128;2023-04-10T00:58:58;9.15;;;8.20;;
12151;SDS011;6139;51.274;7.128;2023-04-10T01:00:02;9.52;;;8.40;;
12151;SDS011;6139;51.274;7.128;2023-04-10T01:01:04;9.18;;;8.20;;
12151;SDS011;6139;51.274;7.128;2023-04-10T01:02:09;9.68;;;8.68;;
12151;SDS011;6139;51.274;7.128;2023-04-10T01:03:13;9.50;;;8.48;;
12151;SDS011;6139;51.274;7.128;2023-04-10T01:04:18;9.10;;;8.15;;
12151;SDS011;6139;51.274;7.128;2023-04-10T01:05:20;10.20;;;8.50;;
12151;SDS011;6139;51.274;7.128;2023-04-10T01:06:26;9.82;;;8.38;;
12151;SDS011;6139;51.274;7.128;2023-04-10T01:07:37;9.57;;;8.60;;
12151;SDS011;6139;51.274;7.128;2023-04-10T01:08:52;9.32;;;8.00;;
12151;SDS011;6139;51.274;7.128;2023-04-10T01:10:01;8.88;;;7.90;;
12151;SDS011;6139;51.274;7.128;2023-04-10T01:11:11;9.00;;;7.97;;
12151;SDS011;6139;51.274;7.128;2023-04-10T01:12:24;9.40;;;8.02;;
12151;SDS011;6139;51.274;7.128;2023-04-10T01:13:40;9.93;;;8.88;;
12151;SDS011;6139;51.274;7.128;2023-04-10T01:14:49;9.80;;;8.63;;
12151;SDS011;6139;51.274;7.128;2023-04-10T01:16:00;8.82;;;7.75;;
12151;SDS011;6139;51.274;7.128;2023-04-10T01:17:06;8.55;;;7.65;;
12151;SDS011;6139;51.274;7.128;2023-04-10T01:18:14;9.18;;;8.23;;
12151;SDS011;6139;51.274;7.128;2023-04-10T01:19:28;9.85;;;7.97;;
12151;SDS011;6139;51.274;7.128;2023-04-10T01:20:45;11.13;;;8.48;;
12151;SDS011;6139;51.274;7.128;2023-04-10T01:21:46;10.43;;;8.45;;
12151;SDS011;6139;51.274;7.128;2023-04-10T01:22:51;9.25;;;8.07;;
12151;SDS011;6139;51.274;7.128;2023-04-10T01:24:06;9.13;;;8.20;;
12151;SDS011;6139;51.274;7.128;2023-04-10T01:25:29;9.18;;;8.27;;
12151;SDS011;6139;51.274;7.128;2023-04-10T01:26:41;9.05;;;7.78;;
12151;SDS011;6139;51.274;7.128;2023-04-10T01:27:58;10.57;;;8.50;;
12151;SDS011;6139;51.274;7.128;2023-04-10T01:29:12;11.23;;;8.97;;
12151;SDS011;6139;51.274;7.128;2023-04-10T01:30:19;9.02;;;8.13;;
12151;SDS011;6139;51.274;7.128;2023-04-10T01:31:26;10.75;;;7.88;;
12151;SDS011;6139;51.274;7.128;2023-04-10T01:32:35;9.07;;;8.05;;
12151;SDS011;6139;51.274;7.128;2023-04-10T01:33:39;8.88;;;7.97;;
12151;SDS011;6139;51.274;7.128;2023-04-10T01:34:48;8.73;;;7.80;;
12151;SDS011;6139;51.274;7.128;2023-04-10T01:35:52;9.02;;;8.13;;
12151;SDS011;6139;51.274;7.128;2023-04-10T01:36:58;9.60;;;8.13;;
12151;SDS011;6139;51.274;7.128;2023-04-10T01:38:02;9.50;;;8.50;;
12151;SDS011;6139;51.274;7.128;2023-04-10T01:39:07;9.27;;;8.02;;
12151;SDS011;6139;51.274;7.128;2023-04-10T01:40:10;9.43;;;8.15;;
12151;SDS011;6139;51.274;7.128;2023-04-10T01:41:17;9.15;;;8.10;;
12151;SDS011;6139;51.274;7.128;2023-04-10T01:42:19;8.70;;;7.50;;
12151;SDS011;6139;51.274;7.128;2023-04-10T01:43:23;8.67;;;7.77;;
12151;SDS011;6139;51.274;7.128;2023-04-10T01:44:29;9.88;;;8.43;;
12151;SDS011;6139;51.274;7.128;2023-04-10T01:45:32;9.43;;;8.40;;
12151;SDS011;6139;51.274;7.128;2023-04-10T01:46:34;9.77;;;8.10;;
12151;SDS011;6139;51.274;7.128;2023-04-10T01:47:38;9.30;;;8.27;;
12151;SDS011;6139;51.274;7.128;2023-04-10T01:48:40;9.50;;;8.07;;
12151;SDS011;6139;51.274;7.128;2023-04-10T01:49:43;8.70;;;7.80;;
12151;SDS011;6139;51.274;7.128;2023-04-10T01:50:47;9.00;;;7.67;;
12151;SDS011;6139;51.274;7.128;2023-04-10T01:51:51;8.73;;;7.60;;
12151;SDS011;6139;51.274;7.128;2023-04-10T01:52:55;8.50;;;7.40;;
12151;SDS011;6139;51.274;7.128;2023-04-10T01:54:00;8.67;;;7.63;;
12151;SDS011;6139;51.274;7.128;2023-04-10T01:55:03;9.23;;;7.70;;
12151;SDS011;6139;51.274;7.128;2023-04-10T01:56:18;8.45;;;7.65;;
12151;SDS011;6139;51.274;7.128;2023-04-10T01:57:21;9.07;;;8.00;;
12151;SDS011;6139;51.274;7.128;2023-04-10T01:58:26;10.55;;;8.00;;
12151;SDS011;6139;51.274;7.128;2023-04-10T01:59:31;8.82;;;7.75;;
12151;SDS011;6139;51.274;7.128;2023-04-10T02:00:36;8.20;;;7.20;;
12151;SDS011;6139;51.274;7.128;2023-04-10T02:01:39;8.98;;;7.93;;
12151;SDS011;6139;51.274;7.128;2023-04-10T02:02:40;8.73;;;7.72;;
12151;SDS011;6139;51.274;7.128;2023-04-10T02:03:42;10.10;;;7.97;;
12151;SDS011;6139;51.274;7.128;2023-04-10T02:04:43;8.90;;;7.87;;
12151;SDS011;6139;51.274;7.128;2023-04-10T02:05:55;7.93;;;7.13;;
12151;SDS011;6139;51.274;7.128;2023-04-10T02:07:07;8.90;;;7.37;;
12151;SDS011;6139;51.274;7.128;2023-04-10T02:08:13;8.25;;;7.38;;
12151;SDS011;6139;51.274;7.128;2023-04-10T02:09:21;9.23;;;7.47;;
12151;SDS011;6139;51.274;7.128;2023-04-10T02:10:29;8.52;;;7.60;;
12151;SDS011;6139;51.274;7.128;2023-04-10T02:11:37;8.37;;;7.00;;
12151;SDS011;6139;51.274;7.128;2023-04-10T02:12:45;8.65;;;6.80;;
12151;SDS011;6139;51.274;7.128;2023-04-10T02:13:52;7.85;;;6.95;;
12151;SDS011;6139;51.274;7.128;2023-04-10T02:15:01;8.10;;;7.30;;
12151;SDS011;6139;51.274;7.128;2023-04-10T02:16:06;8.32;;;6.93;;
12151;SDS011;6139;51.274;7.128;2023-04-10T02:17:08;8.68;;;7.15;;
12151;SDS011;6139;51.274;7.128;2023-04-10T02:18:13;8.82;;;7.55;;
12151;SDS011;6139;51.274;7.128;2023-04-10T02:19:17;10.30;;;7.47;;
12151;SDS011;6139;51.274;7.128;2023-04-10T02:20:20;8.35;;;7.47;;
12151;SDS011;6139;51.274;7.128;2023-04-10T02:21:22;7.85;;;6.95;;
12151;SDS011;6139;51.274;7.128;2023-04-10T02:22:23;6.70;;;6.00;;
12151;SDS011;6139;51.274;7.128;2023-04-10T02:23:26;8.43;;;7.20;;
12151;SDS011;6139;51.274;7.128;2023-04-10T02:24:28;7.47;;;6.43;;
12151;SDS011;6139;51.274;7.128;2023-04-10T02:25:30;7.93;;;6.90;;
12151;SDS011;6139;51.274;7.128;2023-04-10T02:26:42;7.70;;;6.80;;
12151;SDS011;6139;51.274;7.128;2023-04-10T02:27:45;7.10;;;6.40;;
12151;SDS011;6139;51.274;7.128;2023-04-10T02:28:46;8.20;;;7.13;;
12151;SDS011;6139;51.274;7.128;2023-04-10T02:29:48;7.70;;;6.90;;
12151;SDS011;6139;51.274;7.128;2023-04-10T02:30:50;7.63;;;6.68;;
12151;SDS011;6139;51.274;7.128;2023-04-10T02:31:52;7.53;;;6.72;;
12151;SDS011;6139;51.274;7.128;2023-04-10T02:32:53;7.78;;;6.60;;
12151;SDS011;6139;51.274;7.128;2023-04-10T02:33:55;8.32;;;6.85;;
12151;SDS011;6139;51.274;7.128;2023-04-10T02:34:56;9.00;;;6.97;;
12151;SDS011;6139;51.274;7.128;2023-04-10T02:35:58;7.28;;;6.57;;
12151;SDS011;6139;51.274;7.128;2023-04-10T02:36:59;7.17;;;6.47;;
12151;SDS011;6139;51.274;7.128;2023-04-10T02:38:03;7.07;;;6.38;;
12151;SDS011;6139;51.274;7.128;2023-04-10T02:39:06;7.78;;;6.97;;
12151;SDS011;6139;51.274;7.128;2023-04-10T02:40:14;7.97;;;6.45;;
12151;SDS011;6139;51.274;7.128;2023-04-10T02:41:25;8.23;;;6.90;;
12151;SDS011;6139;51.274;7.128;2023-04-10T02:42:28;7.93;;;7.13;;
12151;SDS011;6139;51.274;7.128;2023-04-10T02:43:34;8.30;;;7.03;;
12151;SDS011;6139;51.274;7.128;2023-04-10T02:44:36;7.47;;;6.60;;
12151;SDS011;6139;51.274;7.128;2023-04-10T02:45:39;7.37;;;6.57;;
12151;SDS011;6139;51.274;7.128;2023-04-10T02:46:43;7.65;;;6.82;;
12151;SDS011;6139;51.274;7.128;2023-04-10T02:47:46;7.60;;;6.80;;
12151;SDS011;6139;51.274;7.128;2023-04-10T02:48:49;7.87;;;7.07;;
12151;SDS011;6139;51.274;7.128;2023-04-10T02:49:51;7.40;;;6.57;;
12151;SDS011;6139;51.274;7.128;2023-04-10T02:50:56;7.45;;;6.68;;
12151;SDS011;6139;51.274;7.128;2023-04-10T02:51:58;7.70;;;6.90;;
12151;SDS011;6139;51.274;7.128;2023-04-10T02:53:00;7.82;;;6.75;;
12151;SDS011;6139;51.274;7.128;2023-04-10T02:54:01;8.13;;;7.03;;
12151;SDS011;6139;51.274;7.128;2023-04-10T02:55:05;7.78;;;6.90;;
12151;SDS011;6139;51.274;7.128;2023-04-10T02:56:10;7.80;;;6.63;;
12151;SDS011;6139;51.274;7.128;2023-04-10T02:57:12;7.53;;;6.78;;
12151;SDS011;6139;51.274;7.128;2023-04-10T02:58:13;7.72;;;6.45;;
12151;SDS011;6139;51.274;7.128;2023-04-10T02:59:16;7.90;;;7.10;;
12151;SDS011;6139;51.274;7.128;2023-04-10T03:00:17;8.02;;;7.20;;
12151;SDS011;6139;51.274;7.128;2023-04-10T03:01:35;8.52;;;7.03;;
12151;SDS011;6139;51.274;7.128;2023-04-10T03:02:39;7.35;;;6.60;;
12151;SDS011;6139;51.274;7.128;2023-04-10T03:03:48;7.20;;;6.50;;
12151;SDS011;6139;51.274;7.128;2023-04-10T03:04:59;8.48;;;6.22;;
12151;SDS011;6139;51.274;7.128;2023-04-10T03:06:01;7.80;;;7.00;;
12151;SDS011;6139;51.274;7.128;2023-04-10T03:07:06;7.37;;;6.53;;
12151;SDS011;6139;51.274;7.128;2023-04-10T03:08:09;7.63;;;6.83;;
12151;SDS011;6139;51.274;7.128;2023-04-10T03:09:10;8.17;;;7.00;;
12151;SDS011;6139;51.274;7.128;2023-04-10T03:10:12;7.43;;;6.50;;
12151;SDS011;6139;51.274;7.128;2023-04-10T03:11:13;7.63;;;6.22;;
12151;SDS011;6139;51.274;7.128;2023-04-10T03:12:15;7.15;;;6.45;;
12151;SDS011;6139;51.274;7.128;2023-04-10T03:13:16;6.93;;;6.22;;
12151;SDS011;6139;51.274;7.128;2023-04-10T03:14:18;7.75;;;6.70;;
12151;SDS011;6139;51.274;7.128;2023-04-10T03:15:19;8.60;;;7.07;;
12151;SDS011;6139;51.274;7.128;2023-04-10T03:16:21;7.43;;;6.50;;
12151;SDS011;6139;51.274;7.128;2023-04-10T03:17:22;7.38;;;6.60;;
12151;SDS011;6139;51.274;7.128;2023-04-10T03:18:26;7.60;;;6.65;;
12151;SDS011;6139;51.274;7.128;2023-04-10T03:19:29;7.20;;;6.50;;
12151;SDS011;6139;51.274;7.128;2023-04-10T03:20:31;7.65;;;6.80;;
12151;SDS011;6139;51.274;7.128;2023-04-10T03:21:32;7.72;;;6.40;;
12151;SDS011;6139;51.274;7.128;2023-04-10T03:22:34;7.13;;;6.43;;
12151;SDS011;6139;51.274;7.128;2023-04-10T03:23:35;8.23;;;6.65;;
12151;SDS011;6139;51.274;7.128;2023-04-10T03:24:37;7.00;;;6.22;;
12151;SDS011;6139;51.274;7.128;2023-04-10T03:25:40;6.78;;;6.07;;
12151;SDS011;6139;51.274;7.128;2023-04-10T03:26:42;8.10;;;6.63;;
12151;SDS011;6139;51.274;7.128;2023-04-10T03:27:44;7.85;;;6.53;;
12151;SDS011;6139;51.274;7.128;2023-04-10T03:28:46;7.27;;;6.47;;
12151;SDS011;6139;51.274;7.128;2023-04-10T03:29:47;8.40;;;6.90;;
12151;SDS011;6139;51.274;7.128;2023-04-10T03:30:49;7.40;;;6.53;;
12151;SDS011;6139;51.274;7.128;2023-04-10T03:31:51;7.32;;;6.53;;
12151;SDS011;6139;51.274;7.128;2023-04-10T03:32:53;7.32;;;6.57;;
12151;SDS011;6139;51.274;7.128;2023-04-10T03:33:56;8.15;;;6.95;;
12151;SDS011;6139;51.274;7.128;2023-04-10T03:34:57;7.18;;;6.38;;
12151;SDS011;6139;51.274;7.128;2023-04-10T03:35:58;7.43;;;6.65;;
12151;SDS011;6139;51.274;7.128;2023-04-10T03:37:00;7.80;;;7.00;;
12151;SDS011;6139;51.274;7.128;2023-04-10T03:38:03;7.80;;;7.00;;
12151;SDS011;6139;51.274;7.128;2023-04-10T03:39:04;7.78;;;6.97;;
12151;SDS011;6139;51.274;7.128;2023-04-10T03:40:06;7.55;;;6.82;;
12151;SDS011;6139;51.274;7.128;2023-04-10T03:41:09;7.57;;;6.77;;
12151;SDS011;6139;51.274;7.128;2023-04-10T03:42:11;7.53;;;6.72;;
12151;SDS011;6139;51.274;7.128;2023-04-10T03:43:12;8.57;;;6.82;;
12151;SDS011;6139;51.274;7.128;2023-04-10T03:44:14;7.80;;;7.00;;
12151;SDS011;6139;51.274;7.128;2023-04-10T03:45:15;7.60;;;6.80;;
12151;SDS011;6139;51.274;7.128;2023-04-10T03:46:17;6.88;;;5.93;;
12151;SDS011;6139;51.274;7.128;2023-04-10T03:47:18;7.72;;;6.88;;
12151;SDS011;6139;51.274;7.128;2023-04-10T03:48:23;7.20;;;6.50;;
12151;SDS011;6139;51.274;7.128;2023-04-10T03:49:28;7.05;;;6.30;;
12151;SDS011;6139;51.274;7.128;2023-04-10T03:50:37;7.07;;;6.35;;
12151;SDS011;6139;51.274;7.128;2023-04-10T03:51:39;7.40;;;6.47;;
12151;SDS011;6139;51.274;7.128;2023-04-10T03:52:40;7.80;;;7.00;;
12151;SDS011;6139;51.274;7.128;2023-04-10T03:53:46;7.47;;;6.50;;
12151;SDS011;6139;51.274;7.128;2023-04-10T03:54:49;7.55;;;6.57;;
12151;SDS011;6139;51.274;7.128;2023-04-10T03:55:58;7.95;;;7.15;;
12151;SDS011;6139;51.274;7.128;2023-04-10T03:57:00;9.27;;;7.28;;
12151;SDS011;6139;51.274;7.128;2023-04-10T03:58:01;8.10;;;6.97;;
12151;SDS011;6139;51.274;7.128;2023-04-10T03:59:04;7.82;;;7.03;;
12151;SDS011;6139;51.274;7.128;2023-04-10T04:00:11;7.88;;;6.93;;
12151;SDS011;6139;51.274;7.128;2023-04-10T04:01:23;9.23;;;7.05;;
12151;SDS011;6139;51.274;7.128;2023-04-10T04:02:33;8.43;;;6.72;;
12151;SDS011;6139;51.274;7.128;2023-04-10T04:03:35;8.37;;;7.10;;
12151;SDS011;6139;51.274;7.128;2023-04-10T04:04:59;7.83;;;6.40;;
12151;SDS011;6139;51.274;7.128;2023-04-10T04:06:20;8.50;;;7.13;;
12151;SDS011;6139;51.274;7.128;2023-04-10T04:07:42;8.45;;;6.97;;
12151;SDS011;6139;51.274;7.128;2023-04-10T04:09:09;8.10;;;6.97;;
12151;SDS011;6139;51.274;7.128;2023-04-10T04:10:25;8.33;;;7.43;;
12151;SDS011;6139;51.274;7.128;2023-04-10T04:11:45;7.57;;;6.77;;
12151;SDS011;6139;51.274;7.128;2023-04-10T04:13:06;8.13;;;6.80;;
12151;SDS011;6139;51.274;7.128;2023-04-10T04:14:29;9.50;;;7.40;;
12151;SDS011;6139;51.274;7.128;2023-04-10T04:15:50;8.55;;;7.25;;
12151;SDS011;6139;51.274;7.128;2023-04-10T04:17:08;7.50;;;6.70;;
12151;SDS011;6139;51.274;7.128;2023-04-10T04:18:29;8.63;;;7.15;;
12151;SDS011;6139;51.274;7.128;2023-04-10T04:19:50;8.05;;;6.63;;
12151;SDS011;6139;51.274;7.128;2023-04-10T04:21:00;7.95;;;7.15;;
12151;SDS011;6139;51.274;7.128;2023-04-10T04:22:25;7.93;;;6.80;;
12151;SDS011;6139;51.274;7.128;2023-04-10T04:23:39;8.77;;;7.32;;
12151;SDS011;6139;51.274;7.128;2023-04-10T04:24:45;7.85;;;6.90;;
12151;SDS011;6139;51.274;7.128;2023-04-10T04:25:56;7.78;;;6.75;;
12151;SDS011;6139;51.274;7.128;2023-04-10T04:27:16;7.68;;;6.88;;
12151;SDS011;6139;51.274;7.128;2023-04-10T04:28:30;7.70;;;6.38;;
12151;SDS011;6139;51.274;7.128;2023-04-10T04:29:44;8.25;;;7.35;;
12151;SDS011;6139;51.274;7.128;2023-04-10T04:31:08;7.80;;;7.05;;
12151;SDS011;6139;51.274;7.128;2023-04-10T04:32:35;7.78;;;6.32;;
12151;SDS011;6139;51.274;7.128;2023-04-10T04:33:56;7.83;;;7.03;;
12151;SDS011;6139;51.274;7.128;2023-04-10T04:35:14;8.53;;;7.13;;
12151;SDS011;6139;51.274;7.128;2023-04-10T04:36:31;7.18;;;6.43;;
12151;SDS011;6139;51.274;7.128;2023-04-10T04:37:44;8.52;;;7.15;;
12151;SDS011;6139;51.274;7.128;2023-04-10T04:39:09;8.47;;;6.60;;
12151;SDS011;6139;51.274;7.128;2023-04-10T04:40:31;7.70;;;6.90;;
12151;SDS011;6139;51.274;7.128;2023-04-10T04:41:39;7.60;;;6.80;;
12151;SDS011;6139;51.274;7.128;2023-04-10T04:42:58;7.93;;;6.77;;
12151;SDS011;6139;51.274;7.128;2023-04-10T04:44:19;8.05;;;7.10;;
12151;SDS011;6139;51.274;7.128;2023-04-10T04:45:34;7.68;;;6.68;;
12151;SDS011;6139;51.274;7.128;2023-04-10T04:46:55;7.45;;;6.70;;
12151;SDS011;6139;51.274;7.128;2023-04-10T04:47:57;7.68;;;6.85;;
12151;SDS011;6139;51.274;7.128;2023-04-10T04:49:10;8.50;;;7.20;;
12151;SDS011;6139;51.274;7.128;2023-04-10T04:50:21;8.90;;;8.00;;
12151;SDS011;6139;51.274;7.128;2023-04-10T04:51:44;7.17;;;6.30;;
12151;SDS011;6139;51.274;7.128;2023-04-10T04:52:59;7.35;;;6.55;;
12151;SDS011;6139;51.274;7.128;2023-04-10T04:54:06;7.63;;;6.83;;
12151;SDS011;6139;51.274;7.128;2023-04-10T04:55:08;10.02;;;6.63;;
12151;SDS011;6139;51.274;7.128;2023-04-10T04:56:32;8.00;;;7.17;;
12151;SDS011;6139;51.274;7.128;2023-04-10T04:57:44;7.22;;;6.53;;
12151;SDS011;6139;51.274;7.128;2023-04-10T04:59:14;7.28;;;6.18;;
12151;SDS011;6139;51.274;7.128;2023-04-10T05:00:38;7.20;;;6.50;;
12151;SDS011;6139;51.274;7.128;2023-04-10T05:01:58;7.13;;;6.33;;
12151;SDS011;6139;51.274;7.128;2023-04-10T05:03:18;7.13;;;6.20;;
12151;SDS011;6139;51.274;7.128;2023-04-10T05:04:35;7.67;;;6.77;;
12151;SDS011;6139;51.274;7.128;2023-04-10T05:06:02;7.97;;;6.80;;
12151;SDS011;6139;51.274;7.128;2023-04-10T05:07:21;7.83;;;6.47;;
12151;SDS011;6139;51.274;7.128;2023-04-10T05:08:30;7.17;;;6.33;;
12151;SDS011;6139;51.274;7.128;2023-04-10T05:09:32;8.13;;;6.97;;
12151;SDS011;6139;51.274;7.128;2023-04-10T05:10:45;7.60;;;6.80;;
12151;SDS011;6139;51.274;7.128;2023-04-10T05:12:07;7.33;;;6.13;;
12151;SDS011;6139;51.274;7.128;2023-04-10T05:13:23;8.50;;;6.37;;
12151;SDS011;6139;51.274;7.128;2023-04-10T05:14:44;7.33;;;6.50;;
12151;SDS011;6139;51.274;7.128;2023-04-10T05:16:09;7.03;;;6.13;;
12151;SDS011;6139;51.274;7.128;2023-04-10T05:17:27;7.57;;;6.37;;
12151;SDS011;6139;51.274;7.128;2023-04-10T05:19:01;6.80;;;5.67;;
12151;SDS011;6139;51.274;7.128;2023-04-10T05:20:22;8.03;;;6.10;;
12151;SDS011;6139;51.274;7.128;2023-04-10T05:21:48;7.33;;;6.53;;
12151;SDS011;6139;51.274;7.128;2023-04-10T05:23:19;6.87;;;5.77;;
12151;SDS011;6139;51.274;7.128;2023-04-10T05:24:49;7.17;;;6.47;;
12151;SDS011;6139;51.274;7.128;2023-04-10T05:25:58;6.57;;;5.90;;
12151;SDS011;6139;51.274;7.128;2023-04-10T05:27:19;8.40;;;6.43;;
12151;SDS011;6139;51.274;7.128;2023-04-10T05:28:41;6.63;;;5.78;;
12151;SDS011;6139;51.274;7.128;2023-04-10T05:30:15;7.43;;;6.30;;
12151;SDS011;6139;51.274;7.128;2023-04-10T05:31:36;7.77;;;6.63;;
12151;SDS011;6139;51.274;7.128;2023-04-10T05:33:06;7.43;;;6.27;;
12151;SDS011;6139;51.274;7.128;2023-04-10T05:34:19;7.80;;;6.10;;
12151;SDS011;6139;51.274;7.128;2023-04-10T05:35:49;6.77;;;6.07;;
12151;SDS011;6139;51.274;7.128;2023-04-10T05:37:01;7.18;;;5.97;;
12151;SDS011;6139;51.274;7.128;2023-04-10T05:38:26;7.83;;;6.80;;
12151;SDS011;6139;51.274;7.128;2023-04-10T05:39:47;7.47;;;6.68;;
12151;SDS011;6139;51.274;7.128;2023-04-10T05:41:01;6.80;;;6.07;;
12151;SDS011;6139;51.274;7.128;2023-04-10T05:42:31;6.93;;;5.80;;
12151;SDS011;6139;51.274;7.128;2023-04-10T05:43:59;6.70;;;5.93;;
12151;SDS011;6139;51.274;7.128;2023-04-10T05:45:20;7.67;;;6.30;;
12151;SDS011;6139;51.274;7.128;2023-04-10T05:46:41;6.40;;;5.63;;
12151;SDS011;6139;51.274;7.128;2023-04-10T05:48:02;6.35;;;5.75;;
12151;SDS011;6139;51.274;7.128;2023-04-10T05:49:22;6.80;;;6.00;;
12151;SDS011;6139;51.274;7.128;2023-04-10T05:50:42;6.23;;;5.63;;
12151;SDS011;6139;51.274;7.128;2023-04-10T05:51:48;6.90;;;5.78;;
12151;SDS011;6139;51.274;7.128;2023-04-10T05:53:11;6.70;;;6.00;;
12151;SDS011;6139;51.274;7.128;2023-04-10T05:54:19;6.55;;;5.90;;
12151;SDS011;6139;51.274;7.128;2023-04-10T05:55:56;6.82;;;6.03;;
12151;SDS011;6139;51.274;7.128;2023-04-10T05:57:17;6.68;;;5.97;;
12151;SDS011;6139;51.274;7.128;2023-04-10T05:58:56;6.47;;;5.47;;
12151;SDS011;6139;51.274;7.128;2023-04-10T06:00:28;6.50;;;5.80;;
12151;SDS011;6139;51.274;7.128;2023-04-10T06:02:03;6.77;;;5.97;;
12151;SDS011;6139;51.274;7.128;2023-04-10T06:03:05;7.30;;;6.38;;
12151;SDS011;6139;51.274;7.128;2023-04-10T06:04:08;6.60;;;5.67;;
12151;SDS011;6139;51.274;7.128;2023-04-10T06:05:11;6.00;;;5.40;;
12151;SDS011;6139;51.274;7.128;2023-04-10T06:06:15;6.82;;;6.13;;
12151;SDS011;6139;51.274;7.128;2023-04-10T06:07:16;6.28;;;5.68;;
12151;SDS011;6139;51.274;7.128;2023-04-10T06:08:18;6.88;;;5.88;;
12151;SDS011;6139;51.274;7.128;2023-04-10T06:09:20;6.72;;;5.97;;
12151;SDS011;6139;51.274;7.128;2023-04-10T06:10:22;6.65;;;5.82;;
12151;SDS011;6139;51.274;7.128;2023-04-10T06:11:25;6.73;;;6.03;;
12151;SDS011;6139;51.274;7.128;2023-04-10T06:12:29;7.40;;;5.82;;
12151;SDS011;6139;51.274;7.128;2023-04-10T06:13:30;6.87;;;6.07;;
12151;SDS011;6139;51.274;7.128;2023-04-10T06:14:33;7.00;;;6.30;;
12151;SDS011;6139;51.274;7.128;2023-04-10T06:15:34;6.67;;;5.93;;
12151;SDS011;6139;51.274;7.128;2023-04-10T06:16:36;6.07;;;5.47;;
12151;SDS011;6139;51.274;7.128;2023-04-10T06:17:40;6.23;;;5.63;;
12151;SDS011;6139;51.274;7.128;2023-04-10T06:18:43;6.73;;;6.13;;
12151;SDS011;6139;51.274;7.128;2023-04-10T06:19:45;6.85;;;6.05;;
12151;SDS011;6139;51.274;7.128;2023-04-10T06:20:46;6.65;;;5.88;;
12151;SDS011;6139;51.274;7.128;2023-04-10T06:21:48;6.97;;;6.00;;
12151;SDS011;6139;51.274;7.128;2023-04-10T06:22:50;6.57;;;5.90;;
12151;SDS011;6139;51.274;7.128;2023-04-10T06:23:52;7.32;;;6.30;;
12151;SDS011;6139;51.274;7.128;2023-04-10T06:24:54;6.80;;;5.90;;
12151;SDS011;6139;51.274;7.128;2023-04-10T06:25:56;6.60;;;6.00;;
12151;SDS011;6139;51.274;7.128;2023-04-10T06:26:57;6.70;;;6.00;;
12151;SDS011;6139;51.274;7.128;2023-04-10T06:28:00;6.63;;;5.67;;
12151;SDS011;6139;51.274;7.128;2023-04-10T06:29:01;6.70;;;6.00;;
12151;SDS011;6139;51.274;7.128;2023-04-10T06:30:03;7.00;;;5.60;;
12151;SDS011;6139;51.274;7.128;2023-04-10T06:31:05;6.87;;;6.00;;
12151;SDS011;6139;51.274;7.128;2023-04-10T06:32:10;6.57;;;5.87;;
12151;SDS011;6139;51.274;7.128;2023-04-10T06:33:13;8.32;;;5.97;;
12151;SDS011;6139;51.274;7.128;2023-04-10T06:34:17;6.32;;;5.72;;
12151;SDS011;6139;51.274;7.128;2023-04-10T06:35:34;6.38;;;5.60;;
12151;SDS011;6139;51.274;7.128;2023-04-10T06:36:37;6.17;;;5.50;;
12151;SDS011;6139;51.274;7.128;2023-04-10T06:37:40;7.15;;;6.13;;
12151;SDS011;6139;51.274;7.128;2023-04-10T06:38:42;6.10;;;5.50;;
12151;SDS011;6139;51.274;7.128;2023-04-10T06:39:43;6.50;;;5.80;;
12151;SDS011;6139;51.274;7.128;2023-04-10T06:40:47;6.43;;;5.73;;
12151;SDS011;6139;51.274;7.128;2023-04-10T06:41:48;6.75;;;6.10;;
12151;SDS011;6139;51.274;7.128;2023-04-10T06:43:02;6.53;;;5.70;;
12151;SDS011;6139;51.274;7.128;2023-04-10T06:44:11;6.20;;;5.60;;
12151;SDS011;6139;51.274;7.128;2023-04-10T06:45:13;6.13;;;5.50;;
12151;SDS011;6139;51.274;7.128;2023-04-10T06:46:14;6.47;;;5.78;;
12151;SDS011;6139;51.274;7.128;2023-04-10T06:47:16;7.25;;;6.15;;
12151;SDS011;6139;51.274;7.128;2023-04-10T06:48:18;5.90;;;5.30;;
12151;SDS011;6139;51.274;7.128;2023-04-10T06:49:19;6.33;;;5.70;;
12151;SDS011;6139;51.274;7.128;2023-04-10T06:50:21;6.97;;;6.18;;
12151;SDS011;6139;51.274;7.128;2023-04-10T06:51:22;7.05;;;6.35;;
12151;SDS011;6139;51.274;7.128;2023-04-10T06:52:24;6.17;;;5.57;;
12151;SDS011;6139;51.274;7.128;2023-04-10T06:53:26;8.25;;;5.90;;